sensor_id;sensor_type;location;lat;lon;timestamp;temperature;humidity
24518;DHT22;12678;51.336;12.406;2023-10-08T00:00:32;19.00;99.90
24518;DHT22;12678;51.336;12.406;2023-10-08T00:03:09;19.00;99.90
24518;DHT22;12678;51.336;12.406;2023-10-08T00:05:36;19.00;99.90
24518;DHT22;12678;51.336;12.406;2023-10-08T00:08:02;19.10;99.90
24518;DHT22;12678;51.336;12.406;2023-10-08T00:10:34;19.10;99.90
24518;DHT22;12678;51.336;12.406;2023-10-08T00:13:00;19.00;99.90
24518;DHT22;12678;51.336;12.406;2023-10-08T00:15:25;19.10;99.90
24518;DHT22;12678;51.336;12.406;2023-10-08T00:17:51;19.10;99.90
24518;DHT22;12678;51.336;12.406;2023-10-08T00:20:20;19.10;99.90
24518;DHT22;12678;51.336;12.406;2023-10-08T00:22:51;19.00;99.90
24518;DHT22;12678;51.336;12.406;2023-10-08T00:25:20;19.10;99.90
24518;DHT22;12678;51.336;12.406;2023-10-08T00:27:45;19.00;99.90
24518;DHT22;12678;51.336;12.406;2023-10-08T00:30:14;19.00;99.90
24518;DHT22;12678;51.336;12.406;2023-10-08T00:32:43;18.90;99.90
24518;DHT22;12678;51.336;12.406;2023-10-08T00:35:09;18.90;99.90
24518;DHT22;12678;51.336;12.406;2023-10-08T00:37:39;18.90;99.90
24518;DHT22;12678;51.336;12.406;2023-10-08T00:40:06;18.90;99.90
24518;DHT22;12678;51.336;12.406;2023-10-08T00:42:40;18.90;99.90
24518;DHT22;12678;51.336;12.406;2023-10-08T00:45:11;18.90;99.90
24518;DHT22;12678;51.336;12.406;2023-10-08T00:47:41;18.90;99.90
24518;DHT22;12678;51.336;12.406;2023-10-08T00:50:09;18.90;99.90
24518;DHT22;12678;51.336;12.406;2023-10-08T00:52:45;18.90;99.90
24518;DHT22;12678;51.336;12.406;2023-10-08T00:55:22;18.90;99.90
24518;DHT22;12678;51.336;12.406;2023-10-08T00:57:57;18.80;99.90
24518;DHT22;12678;51.336;12.406;2023-10-08T01:00:24;18.80;99.90
24518;DHT22;12678;51.336;12.406;2023-10-08T01:02:58;18.80;99.90
24518;DHT22;12678;51.336;12.406;2023-10-08T01:05:27;18.80;99.90
24518;DHT22;12678;51.336;12.406;2023-10-08T01:08:09;18.80;99.90
24518;DHT22;12678;51.336;12.406;2023-10-08T01:10:38;18.70;99.90
24518;DHT22;12678;51.336;12.406;2023-10-08T01:13:05;18.80;99.90
24518;DHT22;12678;51.336;12.406;2023-10-08T01:15:36;18.70;99.90
24518;DHT22;12678;51.336;12.406;2023-10-08T01:18:03;18.80;99.90
24518;DHT22;12678;51.336;12.406;2023-10-08T01:20:31;18.80;99.90
24518;DHT22;12678;51.336;12.406;2023-10-08T01:23:07;18.80;99.90
24518;DHT22;12678;51.336;12.406;2023-10-08T01:25:45;18.70;99.90
24518;DHT22;12678;51.336;12.406;2023-10-08T01:28:16;18.50;99.90
24518;DHT22;12678;51.336;12.406;2023-10-08T01:30:56;18.30;99.90
24518;DHT22;12678;51.336;12.406;2023-10-08T01:33:28;18.10;99.90
24518;DHT22;12678;51.336;12.406;2023-10-08T01:35:55;17.90;99.90
24518;DHT22;12678;51.336;12.406;2023-10-08T01:38:28;17.70;99.90
24518;DHT22;12678;51.336;12.406;2023-10-08T01:40:54;17.50;99.90
24518;DHT22;12678;51.336;12.406;2023-10-08T01:43:21;17.30;99.90
24518;DHT22;12678;51.336;12.406;2023-10-08T01:45:47;17.20;99.90
24518;DHT22;12678;51.336;12.406;2023-10-08T01:48:14;17.00;99.90
24518;DHT22;12678;51.336;12.406;2023-10-08T01:50:56;16.60;99.90
24518;DHT22;12678;51.336;12.406;2023-10-08T01:53:24;16.50;99.90
24518;DHT22;12678;51.336;12.406;2023-10-08T01:55:49;16.20;99.90
24518;DHT22;12678;51.336;12.406;2023-10-08T01:58:18;16.20;99.90
24518;DHT22;12678;51.336;12.406;2023-10-08T02:00:46;16.10;99.90
24518;DHT22;12678;51.336;12.406;2023-10-08T02:03:13;16.00;99.90
24518;DHT22;12678;51.336;12.406;2023-10-08T02:05:41;15.80;99.90
24518;DHT22;12678;51.336;12.406;2023-10-08T02:08:11;15.70;99.90
24518;DHT22;12678;51.336;12.406;2023-10-08T02:10:39;15.60;99.90
24518;DHT22;12678;51.336;12.406;2023-10-08T02:13:06;15.50;99.90
24518;DHT22;12678;51.336;12.406;2023-10-08T02:15:31;15.30;99.90
24518;DHT22;12678;51.336;12.406;2023-10-08T02:17:57;15.30;99.90
24518;DHT22;12678;51.336;12.406;2023-10-08T02:20:24;15.10;99.90
24518;DHT22;12678;51.336;12.406;2023-10-08T02:22:49;15.10;99.90
24518;DHT22;12678;51.336;12.406;2023-10-08T02:25:15;15.10;99.90
24518;DHT22;12678;51.336;12.406;2023-10-08T02:27:41;14.90;99.90
24518;DHT22;12678;51.336;12.406;2023-10-08T02:30:07;14.90;99.90
24518;DHT22;12678;51.336;12.406;2023-10-08T02:32:35;14.80;99.90
24518;DHT22;12678;51.336;12.406;2023-10-08T02:35:02;14.70;99.90
24518;DHT22;12678;51.336;12.406;2023-10-08T02:37:28;14.80;99.90
24518;DHT22;12678;51.336;12.406;2023-10-08T02:39:53;14.70;99.90
24518;DHT22;12678;51.336;12.406;2023-10-08T02:42:20;14.70;99.90
24518;DHT22;12678;51.336;12.406;2023-10-08T02:44:47;14.70;99.90
24518;DHT22;12678;51.336;12.406;2023-10-08T02:47:12;14.60;99.90
24518;DHT22;12678;51.336;12.406;2023-10-08T02:49:46;14.60;99.90
24518;DHT22;12678;51.336;12.406;2023-10-08T02:52:14;14.60;99.90
24518;DHT22;12678;51.336;12.406;2023-10-08T02:54:41;14.60;99.90
24518;DHT22;12678;51.336;12.406;2023-10-08T02:57:06;14.50;99.90
24518;DHT22;12678;51.336;12.406;2023-10-08T02:59:39;14.40;99.90
24518;DHT22;12678;51.336;12.406;2023-10-08T03:02:07;14.30;99.90
24518;DHT22;12678;51.336;12.406;2023-10-08T03:04:42;14.30;99.90
24518;DHT22;12678;51.336;12.406;2023-10-08T03:07:15;14.30;99.90
24518;DHT22;12678;51.336;12.406;2023-10-08T03:09:48;14.20;99.90
24518;DHT22;12678;51.336;12.406;2023-10-08T03:12:16;14.20;99.90
24518;DHT22;12678;51.336;12.406;2023-10-08T03:14:42;14.20;99.90
24518;DHT22;12678;51.336;12.406;2023-10-08T03:17:15;14.10;99.90
24518;DHT22;12678;51.336;12.406;2023-10-08T03:19:46;14.10;99.90
24518;DHT22;12678;51.336;12.406;2023-10-08T03:22:12;14.10;99.90
24518;DHT22;12678;51.336;12.406;2023-10-08T03:24:38;14.10;99.90
24518;DHT22;12678;51.336;12.406;2023-10-08T03:27:05;14.10;99.90
24518;DHT22;12678;51.336;12.406;2023-10-08T03:29:34;14.10;99.90
24518;DHT22;12678;51.336;12.406;2023-10-08T03:32:11;14.00;99.90
24518;DHT22;12678;51.336;12.406;2023-10-08T03:34:49;14.00;99.90
24518;DHT22;12678;51.336;12.406;2023-10-08T03:37:20;14.00;99.90
24518;DHT22;12678;51.336;12.406;2023-10-08T03:39:47;14.00;99.90
24518;DHT22;12678;51.336;12.406;2023-10-08T03:42:23;14.00;99.90
24518;DHT22;12678;51.336;12.406;2023-10-08T03:44:55;14.00;99.90
24518;DHT22;12678;51.336;12.406;2023-10-08T03:47:22;14.00;99.90
24518;DHT22;12678;51.336;12.406;2023-10-08T03:49:52;14.00;99.90
24518;DHT22;12678;51.336;12.406;2023-10-08T03:52:18;14.00;99.90
24518;DHT22;12678;51.336;12.406;2023-10-08T03:54:48;13.90;99.90
24518;DHT22;12678;51.336;12.406;2023-10-08T03:57:20;13.80;99.90
24518;DHT22;12678;51.336;12.406;2023-10-08T03:59:54;13.80;99.90
24518;DHT22;12678;51.336;12.406;2023-10-08T04:02:24;13.80;99.90
24518;DHT22;12678;51.336;12.406;2023-10-08T04:05:05;13.70;99.90
24518;DHT22;12678;51.336;12.406;2023-10-08T04:07:45;13.70;99.90
24518;DHT22;12678;51.336;12.406;2023-10-08T04:10:23;13.70;99.90
24518;DHT22;12678;51.336;12.406;2023-10-08T04:13:14;13.70;99.90
24518;DHT22;12678;51.336;12.406;2023-10-08T04:15:41;13.60;99.90
24518;DHT22;12678;51.336;12.406;2023-10-08T04:18:08;13.60;99.90
24518;DHT22;12678;51.336;12.406;2023-10-08T04:20:34;13.60;99.90
24518;DHT22;12678;51.336;12.406;2023-10-08T04:23:04;13.60;99.90
24518;DHT22;12678;51.336;12.406;2023-10-08T04:25:32;13.60;99.90
24518;DHT22;12678;51.336;12.406;2023-10-08T04:28:01;13.60;99.90
24518;DHT22;12678;51.336;12.406;2023-10-08T04:30:36;13.60;99.90
24518;DHT22;12678;51.336;12.406;2023-10-08T04:33:05;13.60;99.90
24518;DHT22;12678;51.336;12.406;2023-10-08T04:35:39;13.50;99.90
24518;DHT22;12678;51.336;12.406;2023-10-08T04:38:15;13.50;99.90
24518;DHT22;12678;51.336;12.406;2023-10-08T04:40:43;13.40;99.90
24518;DHT22;12678;51.336;12.406;2023-10-08T04:43:18;13.40;99.90
24518;DHT22;12678;51.336;12.406;2023-10-08T04:46:00;13.40;99.90
24518;DHT22;12678;51.336;12.406;2023-10-08T04:48:33;13.30;99.90
24518;DHT22;12678;51.336;12.406;2023-10-08T04:50:59;13.30;99.90
24518;DHT22;12678;51.336;12.406;2023-10-08T04:53:32;13.20;99.90
24518;DHT22;12678;51.336;12.406;2023-10-08T04:56:05;13.20;99.90
24518;DHT22;12678;51.336;12.406;2023-10-08T04:58:34;13.20;99.90
24518;DHT22;12678;51.336;12.406;2023-10-08T05:01:03;13.20;99.90
24518;DHT22;12678;51.336;12.406;2023-10-08T05:03:53;13.20;99.90
24518;DHT22;12678;51.336;12.406;2023-10-08T05:06:26;13.10;99.90
24518;DHT22;12678;51.336;12.406;2023-10-08T05:09:13;13.00;99.90
24518;DHT22;12678;51.336;12.406;2023-10-08T05:11:45;13.00;99.90
24518;DHT22;12678;51.336;12.406;2023-10-08T05:14:23;13.00;99.90
24518;DHT22;12678;51.336;12.406;2023-10-08T05:16:59;12.90;99.90
24518;DHT22;12678;51.336;12.406;2023-10-08T05:19:35;12.90;99.90
24518;DHT22;12678;51.336;12.406;2023-10-08T05:22:10;12.80;99.90
24518;DHT22;12678;51.336;12.406;2023-10-08T05:24:56;12.90;99.90
24518;DHT22;12678;51.336;12.406;2023-10-08T05:27:38;12.90;99.90
24518;DHT22;12678;51.336;12.406;2023-10-08T05:30:30;13.00;99.90
24518;DHT22;12678;51.336;12.406;2023-10-08T05:33:18;12.90;99.90
24518;DHT22;12678;51.336;12.406;2023-10-08T05:35:51;12.90;99.90
24518;DHT22;12678;51.336;12.406;2023-10-08T05:38:27;13.00;99.90
24518;DHT22;12678;51.336;12.406;2023-10-08T05:40:57;12.80;99.90
24518;DHT22;12678;51.336;12.406;2023-10-08T05:43:33;12.80;99.90
24518;DHT22;12678;51.336;12.406;2023-10-08T05:46:08;12.80;99.90
24518;DHT22;12678;51.336;12.406;2023-10-08T05:48:54;12.80;99.90
24518;DHT22;12678;51.336;12.406;2023-10-08T05:51:38;12.80;99.90
24518;DHT22;12678;51.336;12.406;2023-10-08T05:54:31;12.70;99.90
24518;DHT22;12678;51.336;12.406;2023-10-08T05:56:57;12.70;99.90
24518;DHT22;12678;51.336;12.406;2023-10-08T05:59:33;12.70;99.90
24518;DHT22;12678;51.336;12.406;2023-10-08T06:02:25;12.70;99.90
24518;DHT22;12678;51.336;12.406;2023-10-08T06:05:11;12.70;99.90
24518;DHT22;12678;51.336;12.406;2023-10-08T06:07:55;12.70;99.90
24518;DHT22;12678;51.336;12.406;2023-10-08T06:10:25;12.70;99.90
24518;DHT22;12678;51.336;12.406;2023-10-08T06:12:54;12.70;99.90
24518;DHT22;12678;51.336;12.406;2023-10-08T06:15:28;12.70;99.90
24518;DHT22;12678;51.336;12.406;2023-10-08T06:18:10;12.70;99.90
24518;DHT22;12678;51.336;12.406;2023-10-08T06:20:36;12.70;99.90
24518;DHT22;12678;51.336;12.406;2023-10-08T06:23:04;12.80;99.90
24518;DHT22;12678;51.336;12.406;2023-10-08T06:25:33;12.80;99.90
24518;DHT22;12678;51.336;12.406;2023-10-08T06:27:58;12.80;99.90
24518;DHT22;12678;51.336;12.406;2023-10-08T06:30:25;12.70;99.90
24518;DHT22;12678;51.336;12.406;2023-10-08T06:32:55;12.70;99.90
24518;DHT22;12678;51.336;12.406;2023-10-08T06:35:21;12.80;99.90
24518;DHT22;12678;51.336;12.406;2023-10-08T06:37:51;12.80;99.90
24518;DHT22;12678;51.336;12.406;2023-10-08T06:40:20;12.80;99.90
24518;DHT22;12678;51.336;12.406;2023-10-08T06:43:02;12.80;99.90
24518;DHT22;12678;51.336;12.406;2023-10-08T06:45:37;12.70;99.90
24518;DHT22;12678;51.336;12.406;2023-10-08T06:48:04;12.70;99.90
24518;DHT22;12678;51.336;12.406;2023-10-08T06:50:32;12.70;99.90
24518;DHT22;12678;51.336;12.406;2023-10-08T06:53:00;12.70;99.90
24518;DHT22;12678;51.336;12.406;2023-10-08T06:55:31;12.70;99.90
24518;DHT22;12678;51.336;12.406;2023-10-08T06:57:59;12.70;99.90
24518;DHT22;12678;51.336;12.406;2023-10-08T07:00:25;12.60;99.90
24518;DHT22;12678;51.336;12.406;2023-10-08T07:03:13;12.60;99.90
24518;DHT22;12678;51.336;12.406;2023-10-08T07:05:44;12.70;99.90
24518;DHT22;12678;51.336;12.406;2023-10-08T07:08:22;12.70;99.90
24518;DHT22;12678;51.336;12.406;2023-10-08T07:10:52;12.70;99.90
24518;DHT22;12678;51.336;12.406;2023-10-08T07:13:19;12.70;99.90
24518;DHT22;12678;51.336;12.406;2023-10-08T07:15:48;12.70;99.90
24518;DHT22;12678;51.336;12.406;2023-10-08T07:18:14;12.70;99.90
24518;DHT22;12678;51.336;12.406;2023-10-08T07:20:45;12.70;99.90
24518;DHT22;12678;51.336;12.406;2023-10-08T07:23:11;12.70;99.90
24518;DHT22;12678;51.336;12.406;2023-10-08T07:25:58;12.70;99.90
24518;DHT22;12678;51.336;12.406;2023-10-08T07:28:42;12.70;99.90
24518;DHT22;12678;51.336;12.406;2023-10-08T07:33:41;12.60;99.90
24518;DHT22;12678;51.336;12.406;2023-10-08T07:36:10;12.60;99.90
24518;DHT22;12678;51.336;12.406;2023-10-08T07:38:43;12.60;99.90
24518;DHT22;12678;51.336;12.406;2023-10-08T07:41:12;12.60;99.90
24518;DHT22;12678;51.336;12.406;2023-10-08T07:43:40;12.60;99.90
24518;DHT22;12678;51.336;12.406;2023-10-08T07:46:07;12.50;99.90
24518;DHT22;12678;51.336;12.406;2023-10-08T07:48:34;12.50;99.90
24518;DHT22;12678;51.336;12.406;2023-10-08T07:51:00;12.40;99.90
24518;DHT22;12678;51.336;12.406;2023-10-08T07:53:27;12.30;99.90
24518;DHT22;12678;51.336;12.406;2023-10-08T07:56:04;12.30;99.90
24518;DHT22;12678;51.336;12.406;2023-10-08T07:58:32;12.20;99.90
24518;DHT22;12678;51.336;12.406;2023-10-08T08:01:06;12.20;99.90
24518;DHT22;12678;51.336;12.406;2023-10-08T08:03:34;12.30;99.90
24518;DHT22;12678;51.336;12.406;2023-10-08T08:06:04;12.20;99.90
24518;DHT22;12678;51.336;12.406;2023-10-08T08:08:32;12.30;99.90
24518;DHT22;12678;51.336;12.406;2023-10-08T08:10:59;12.30;99.90
24518;DHT22;12678;51.336;12.406;2023-10-08T08:13:31;12.20;99.90
24518;DHT22;12678;51.336;12.406;2023-10-08T08:15:59;12.30;99.90
24518;DHT22;12678;51.336;12.406;2023-10-08T08:18:37;12.30;99.90
24518;DHT22;12678;51.336;12.406;2023-10-08T08:21:03;12.30;99.90
24518;DHT22;12678;51.336;12.406;2023-10-08T08:23:29;12.30;99.90
24518;DHT22;12678;51.336;12.406;2023-10-08T08:25:55;12.40;99.90
24518;DHT22;12678;51.336;12.406;2023-10-08T08:28:32;12.30;99.90
24518;DHT22;12678;51.336;12.406;2023-10-08T08:31:05;12.40;99.90
24518;DHT22;12678;51.336;12.406;2023-10-08T08:33:39;12.40;99.90
24518;DHT22;12678;51.336;12.406;2023-10-08T08:36:28;12.50;99.90
24518;DHT22;12678;51.336;12.406;2023-10-08T08:38:55;12.50;99.90
24518;DHT22;12678;51.336;12.406;2023-10-08T08:41:21;12.50;99.90
24518;DHT22;12678;51.336;12.406;2023-10-08T08:43:52;12.50;99.90
24518;DHT22;12678;51.336;12.406;2023-10-08T08:46:32;12.60;99.90
24518;DHT22;12678;51.336;12.406;2023-10-08T08:49:02;12.60;99.90
24518;DHT22;12678;51.336;12.406;2023-10-08T08:51:29;12.60;99.90
24518;DHT22;12678;51.336;12.406;2023-10-08T08:53:55;12.70;99.90
24518;DHT22;12678;51.336;12.406;2023-10-08T08:56:21;12.80;99.90
24518;DHT22;12678;51.336;12.406;2023-10-08T08:58:49;12.80;99.90
24518;DHT22;12678;51.336;12.406;2023-10-08T09:01:16;12.80;99.90
24518;DHT22;12678;51.336;12.406;2023-10-08T09:03:43;12.90;99.90
24518;DHT22;12678;51.336;12.406;2023-10-08T09:06:11;13.00;99.90
24518;DHT22;12678;51.336;12.406;2023-10-08T09:08:37;13.00;99.90
24518;DHT22;12678;51.336;12.406;2023-10-08T09:11:06;13.10;99.90
24518;DHT22;12678;51.336;12.406;2023-10-08T09:13:34;13.20;99.90
24518;DHT22;12678;51.336;12.406;2023-10-08T09:16:06;13.30;99.90
24518;DHT22;12678;51.336;12.406;2023-10-08T09:18:32;13.30;99.90
24518;DHT22;12678;51.336;12.406;2023-10-08T09:21:07;13.40;99.90
24518;DHT22;12678;51.336;12.406;2023-10-08T09:23:39;13.40;99.90
24518;DHT22;12678;51.336;12.406;2023-10-08T09:26:09;13.50;99.90
24518;DHT22;12678;51.336;12.406;2023-10-08T09:28:34;13.60;99.90
24518;DHT22;12678;51.336;12.406;2023-10-08T09:31:04;13.60;99.90
24518;DHT22;12678;51.336;12.406;2023-10-08T09:33:32;13.70;99.90
24518;DHT22;12678;51.336;12.406;2023-10-08T09:35:59;13.70;99.90
24518;DHT22;12678;51.336;12.406;2023-10-08T09:38:30;13.70;99.90
24518;DHT22;12678;51.336;12.406;2023-10-08T09:40:57;13.80;99.90
24518;DHT22;12678;51.336;12.406;2023-10-08T09:43:23;13.70;99.90
24518;DHT22;12678;51.336;12.406;2023-10-08T09:45:55;13.70;99.90
24518;DHT22;12678;51.336;12.406;2023-10-08T09:48:26;13.70;99.90
24518;DHT22;12678;51.336;12.406;2023-10-08T09:50:53;13.80;99.90
24518;DHT22;12678;51.336;12.406;2023-10-08T09:53:28;13.70;99.90
24518;DHT22;12678;51.336;12.406;2023-10-08T09:55:57;13.70;99.90
24518;DHT22;12678;51.336;12.406;2023-10-08T09:58:27;13.80;99.90
24518;DHT22;12678;51.336;12.406;2023-10-08T10:00:55;13.80;99.90
24518;DHT22;12678;51.336;12.406;2023-10-08T10:03:24;13.80;99.90
24518;DHT22;12678;51.336;12.406;2023-10-08T10:05:51;13.70;99.90
24518;DHT22;12678;51.336;12.406;2023-10-08T10:08:17;13.80;99.90
24518;DHT22;12678;51.336;12.406;2023-10-08T10:10:43;13.80;99.90
24518;DHT22;12678;51.336;12.406;2023-10-08T10:13:13;13.70;99.90
24518;DHT22;12678;51.336;12.406;2023-10-08T10:15:42;13.70;99.90
24518;DHT22;12678;51.336;12.406;2023-10-08T10:20:39;13.80;99.90
24518;DHT22;12678;51.336;12.406;2023-10-08T10:23:38;13.90;99.90
24518;DHT22;12678;51.336;12.406;2023-10-08T10:26:21;14.00;99.90
24518;DHT22;12678;51.336;12.406;2023-10-08T10:31:44;14.40;99.90
24518;DHT22;12678;51.336;12.406;2023-10-08T10:34:12;14.60;99.90
24518;DHT22;12678;51.336;12.406;2023-10-08T10:36:42;14.60;99.90
24518;DHT22;12678;51.336;12.406;2023-10-08T10:39:10;14.60;99.90
24518;DHT22;12678;51.336;12.406;2023-10-08T10:41:45;14.60;99.90
24518;DHT22;12678;51.336;12.406;2023-10-08T10:44:12;14.60;99.90
24518;DHT22;12678;51.336;12.406;2023-10-08T10:46:43;14.50;99.90
24518;DHT22;12678;51.336;12.406;2023-10-08T10:49:09;14.30;99.90
24518;DHT22;12678;51.336;12.406;2023-10-08T10:51:48;14.30;99.90
24518;DHT22;12678;51.336;12.406;2023-10-08T10:54:16;14.20;99.90
24518;DHT22;12678;51.336;12.406;2023-10-08T10:56:47;14.20;99.90
24518;DHT22;12678;51.336;12.406;2023-10-08T10:59:13;14.30;99.90
24518;DHT22;12678;51.336;12.406;2023-10-08T11:01:48;14.50;99.90
24518;DHT22;12678;51.336;12.406;2023-10-08T11:04:33;14.50;99.90
24518;DHT22;12678;51.336;12.406;2023-10-08T11:06:59;14.50;99.90
24518;DHT22;12678;51.336;12.406;2023-10-08T11:09:27;14.60;99.90
24518;DHT22;12678;51.336;12.406;2023-10-08T11:12:03;14.60;99.90
24518;DHT22;12678;51.336;12.406;2023-10-08T11:14:38;14.70;99.90
24518;DHT22;12678;51.336;12.406;2023-10-08T11:17:17;14.70;99.90
24518;DHT22;12678;51.336;12.406;2023-10-08T11:19:43;14.80;99.90
24518;DHT22;12678;51.336;12.406;2023-10-08T11:22:15;14.80;99.90
24518;DHT22;12678;51.336;12.406;2023-10-08T11:24:47;14.80;99.90
24518;DHT22;12678;51.336;12.406;2023-10-08T11:27:17;14.80;99.90
24518;DHT22;12678;51.336;12.406;2023-10-08T11:29:48;14.90;99.90
24518;DHT22;12678;51.336;12.406;2023-10-08T11:32:15;14.80;99.90
24518;DHT22;12678;51.336;12.406;2023-10-08T11:34:45;14.80;99.90
24518;DHT22;12678;51.336;12.406;2023-10-08T11:37:25;14.80;99.90
24518;DHT22;12678;51.336;12.406;2023-10-08T11:39:51;14.80;99.90
24518;DHT22;12678;51.336;12.406;2023-10-08T11:42:18;14.80;99.90
24518;DHT22;12678;51.336;12.406;2023-10-08T11:45:11;14.80;99.90
24518;DHT22;12678;51.336;12.406;2023-10-08T11:47:53;14.80;99.90
24518;DHT22;12678;51.336;12.406;2023-10-08T11:50:25;14.70;99.90
24518;DHT22;12678;51.336;12.406;2023-10-08T11:53:00;14.70;99.90
24518;DHT22;12678;51.336;12.406;2023-10-08T11:55:28;14.60;99.90
24518;DHT22;12678;51.336;12.406;2023-10-08T11:57:54;14.60;99.90
24518;DHT22;12678;51.336;12.406;2023-10-08T12:00:20;14.60;99.90
24518;DHT22;12678;51.336;12.406;2023-10-08T12:02:49;14.50;99.90
24518;DHT22;12678;51.336;12.406;2023-10-08T12:05:15;14.60;99.90
24518;DHT22;12678;51.336;12.406;2023-10-08T12:07:51;14.70;99.90
24518;DHT22;12678;51.336;12.406;2023-10-08T12:10:18;14.70;99.90
24518;DHT22;12678;51.336;12.406;2023-10-08T12:12:52;14.80;99.90
24518;DHT22;12678;51.336;12.406;2023-10-08T12:15:19;14.90;99.90
24518;DHT22;12678;51.336;12.406;2023-10-08T12:17:48;15.10;99.90
24518;DHT22;12678;51.336;12.406;2023-10-08T12:20:32;15.20;99.90
24518;DHT22;12678;51.336;12.406;2023-10-08T12:22:59;15.30;99.90
24518;DHT22;12678;51.336;12.406;2023-10-08T12:25:25;15.30;99.90
24518;DHT22;12678;51.336;12.406;2023-10-08T12:27:50;15.40;99.90
24518;DHT22;12678;51.336;12.406;2023-10-08T12:30:16;15.40;99.90
24518;DHT22;12678;51.336;12.406;2023-10-08T12:32:42;15.40;99.90
24518;DHT22;12678;51.336;12.406;2023-10-08T12:35:10;15.50;99.90
24518;DHT22;12678;51.336;12.406;2023-10-08T12:37:39;15.40;99.90
24518;DHT22;12678;51.336;12.406;2023-10-08T12:40:06;15.40;99.90
24518;DHT22;12678;51.336;12.406;2023-10-08T12:42:37;15.40;99.90
24518;DHT22;12678;51.336;12.406;2023-10-08T12:45:05;15.40;99.90
24518;DHT22;12678;51.336;12.406;2023-10-08T12:47:38;15.30;99.90
24518;DHT22;12678;51.336;12.406;2023-10-08T12:50:04;15.20;99.90
24518;DHT22;12678;51.336;12.406;2023-10-08T12:52:33;15.20;99.90
24518;DHT22;12678;51.336;12.406;2023-10-08T12:55:00;15.10;99.90
24518;DHT22;12678;51.336;12.406;2023-10-08T12:57:30;15.10;99.90
24518;DHT22;12678;51.336;12.406;2023-10-08T13:00:00;15.10;99.90
24518;DHT22;12678;51.336;12.406;2023-10-08T13:02:26;15.10;99.90
24518;DHT22;12678;51.336;12.406;2023-10-08T13:04:54;15.20;99.90
24518;DHT22;12678;51.336;12.406;2023-10-08T13:07:25;15.30;99.90
24518;DHT22;12678;51.336;12.406;2023-10-08T13:09:52;15.40;99.90
24518;DHT22;12678;51.336;12.406;2023-10-08T13:12:18;15.50;99.90
24518;DHT22;12678;51.336;12.406;2023-10-08T13:14:43;15.50;99.90
24518;DHT22;12678;51.336;12.406;2023-10-08T13:17:10;15.50;99.90
24518;DHT22;12678;51.336;12.406;2023-10-08T13:19:36;15.50;99.90
24518;DHT22;12678;51.336;12.406;2023-10-08T13:22:02;15.40;99.90
24518;DHT22;12678;51.336;12.406;2023-10-08T13:24:32;15.30;99.90
24518;DHT22;12678;51.336;12.406;2023-10-08T13:26:58;15.20;99.90
24518;DHT22;12678;51.336;12.406;2023-10-08T13:29:24;15.30;99.90
24518;DHT22;12678;51.336;12.406;2023-10-08T13:31:52;15.40;99.90
24518;DHT22;12678;51.336;12.406;2023-10-08T13:34:19;15.50;99.90
24518;DHT22;12678;51.336;12.406;2023-10-08T13:36:46;15.50;99.90
24518;DHT22;12678;51.336;12.406;2023-10-08T13:39:15;15.60;99.90
24518;DHT22;12678;51.336;12.406;2023-10-08T13:41:46;15.70;99.90
24518;DHT22;12678;51.336;12.406;2023-10-08T13:44:17;15.80;99.90
24518;DHT22;12678;51.336;12.406;2023-10-08T13:46:44;15.80;99.90
24518;DHT22;12678;51.336;12.406;2023-10-08T13:49:15;15.90;99.90
24518;DHT22;12678;51.336;12.406;2023-10-08T13:51:42;15.90;99.90
24518;DHT22;12678;51.336;12.406;2023-10-08T13:54:10;15.90;99.90
24518;DHT22;12678;51.336;12.406;2023-10-08T13:56:36;15.90;99.90
24518;DHT22;12678;51.336;12.406;2023-10-08T13:59:04;15.80;99.90
24518;DHT22;12678;51.336;12.406;2023-10-08T14:01:37;15.60;99.90
24518;DHT22;12678;51.336;12.406;2023-10-08T14:04:04;15.60;99.90
24518;DHT22;12678;51.336;12.406;2023-10-08T14:06:37;15.60;99.90
24518;DHT22;12678;51.336;12.406;2023-10-08T14:09:06;15.60;99.90
24518;DHT22;12678;51.336;12.406;2023-10-08T14:11:38;15.60;99.90
24518;DHT22;12678;51.336;12.406;2023-10-08T14:14:04;15.40;99.90
24518;DHT22;12678;51.336;12.406;2023-10-08T14:16:39;15.30;99.90
24518;DHT22;12678;51.336;12.406;2023-10-08T14:19:08;15.20;99.90
24518;DHT22;12678;51.336;12.406;2023-10-08T14:21:38;15.20;99.90
24518;DHT22;12678;51.336;12.406;2023-10-08T14:24:13;15.10;99.90
24518;DHT22;12678;51.336;12.406;2023-10-08T14:26:41;14.90;99.90
24518;DHT22;12678;51.336;12.406;2023-10-08T14:29:08;14.70;99.90
24518;DHT22;12678;51.336;12.406;2023-10-08T14:31:39;14.60;99.90
24518;DHT22;12678;51.336;12.406;2023-10-08T14:34:05;14.70;99.90
24518;DHT22;12678;51.336;12.406;2023-10-08T14:36:33;14.70;99.90
24518;DHT22;12678;51.336;12.406;2023-10-08T14:39:18;14.80;99.90
24518;DHT22;12678;51.336;12.406;2023-10-08T14:42:03;14.80;99.90
24518;DHT22;12678;51.336;12.406;2023-10-08T14:44:47;14.80;99.90
24518;DHT22;12678;51.336;12.406;2023-10-08T14:47:14;14.80;99.90
24518;DHT22;12678;51.336;12.406;2023-10-08T14:49:41;14.80;99.90
24518;DHT22;12678;51.336;12.406;2023-10-08T14:52:07;14.70;99.90
24518;DHT22;12678;51.336;12.406;2023-10-08T14:54:33;14.70;99.90
24518;DHT22;12678;51.336;12.406;2023-10-08T14:56:59;14.60;99.90
24518;DHT22;12678;51.336;12.406;2023-10-08T14:59:25;14.60;99.90
24518;DHT22;12678;51.336;12.406;2023-10-08T15:01:54;14.60;99.90
24518;DHT22;12678;51.336;12.406;2023-10-08T15:04:20;14.50;99.90
24518;DHT22;12678;51.336;12.406;2023-10-08T15:06:47;14.50;99.90
24518;DHT22;12678;51.336;12.406;2023-10-08T15:09:13;14.50;99.90
24518;DHT22;12678;51.336;12.406;2023-10-08T15:11:50;14.50;99.90
24518;DHT22;12678;51.336;12.406;2023-10-08T15:14:20;14.50;99.90
24518;DHT22;12678;51.336;12.406;2023-10-08T15:16:47;14.50;99.90
24518;DHT22;12678;51.336;12.406;2023-10-08T15:19:21;14.50;99.90
24518;DHT22;12678;51.336;12.406;2023-10-08T15:21:51;14.40;99.90
24518;DHT22;12678;51.336;12.406;2023-10-08T15:24:21;14.40;99.90
24518;DHT22;12678;51.336;12.406;2023-10-08T15:26:51;14.30;99.90
24518;DHT22;12678;51.336;12.406;2023-10-08T15:29:19;14.20;99.90
24518;DHT22;12678;51.336;12.406;2023-10-08T15:31:47;14.20;99.90
24518;DHT22;12678;51.336;12.406;2023-10-08T15:34:15;14.10;99.90
24518;DHT22;12678;51.336;12.406;2023-10-08T15:36:41;14.00;99.90
24518;DHT22;12678;51.336;12.406;2023-10-08T15:39:07;14.00;99.90
24518;DHT22;12678;51.336;12.406;2023-10-08T15:41:37;14.00;99.90
24518;DHT22;12678;51.336;12.406;2023-10-08T15:44:04;14.00;99.90